Lodi, California
Current Conditions -  °F | °C
As of 9:55 AM on Saturday 25 Oct 2014 (Local Time) from KSCK Reporting Station
Overcast Overcast  
Wind Chill: 62°   Ceiling: 3500
Heat Index: 62°   Visibility: 10mi
Dew Point: 57°   Wind: 5mph
Humidity: 84%   Direction: 350°N
Pressure: 30.05"   Gusts: NA
Location:  38.13°N, 121.27°W
Report Text: KSCK 251655Z 35004KT 10SM OVC035 17/14 A3005 RMK AO2 RAE26 SLP175 P0000 T01670139
Loading
Personal Weather Stations






























Interactive Weather Map
Tropical Storm Tracking
New forecast layout! Learn more

10-Day Weather Forecast

Advertisements
Track Severe Weather on mobile